sensor_id;sensor_type;location;lat;lon;timestamp;temperature;humidity
8563;DHT22;16392;52.508;13.468;2023-12-20T00:01:54;7.40;99.90
8563;DHT22;16392;52.508;13.468;2023-12-20T00:04:21;7.40;99.90
8563;DHT22;16392;52.508;13.468;2023-12-20T00:06:48;7.40;99.90
8563;DHT22;16392;52.508;13.468;2023-12-20T00:09:15;7.40;99.90
8563;DHT22;16392;52.508;13.468;2023-12-20T00:11:42;7.40;99.90
8563;DHT22;16392;52.508;13.468;2023-12-20T00:14:09;7.40;99.90
8563;DHT22;16392;52.508;13.468;2023-12-20T00:16:36;7.50;99.90
8563;DHT22;16392;52.508;13.468;2023-12-20T00:19:03;7.40;99.90
8563;DHT22;16392;52.508;13.468;2023-12-20T00:21:29;7.50;99.90
8563;DHT22;16392;52.508;13.468;2023-12-20T00:23:56;7.40;99.90
8563;DHT22;16392;52.508;13.468;2023-12-20T00:26:22;7.40;99.90
8563;DHT22;16392;52.508;13.468;2023-12-20T00:28:49;7.40;99.90
8563;DHT22;16392;52.508;13.468;2023-12-20T00:31:17;7.40;99.90
8563;DHT22;16392;52.508;13.468;2023-12-20T00:33:44;7.40;99.90
8563;DHT22;16392;52.508;13.468;2023-12-20T00:36:12;7.40;99.90
8563;DHT22;16392;52.508;13.468;2023-12-20T00:38:39;7.40;99.90
8563;DHT22;16392;52.508;13.468;2023-12-20T00:41:06;7.40;99.90
8563;DHT22;16392;52.508;13.468;2023-12-20T00:43:32;7.40;99.90
8563;DHT22;16392;52.508;13.468;2023-12-20T00:45:59;7.40;99.90
8563;DHT22;16392;52.508;13.468;2023-12-20T00:48:27;7.40;99.90
8563;DHT22;16392;52.508;13.468;2023-12-20T00:50:55;7.40;99.90
8563;DHT22;16392;52.508;13.468;2023-12-20T00:53:22;7.40;99.90
8563;DHT22;16392;52.508;13.468;2023-12-20T00:55:48;7.40;99.90
8563;DHT22;16392;52.508;13.468;2023-12-20T00:58:15;7.40;99.90
8563;DHT22;16392;52.508;13.468;2023-12-20T01:00:42;7.40;99.90
8563;DHT22;16392;52.508;13.468;2023-12-20T01:03:09;7.40;99.90
8563;DHT22;16392;52.508;13.468;2023-12-20T01:05:37;7.40;99.90
8563;DHT22;16392;52.508;13.468;2023-12-20T01:08:04;7.40;99.90
8563;DHT22;16392;52.508;13.468;2023-12-20T01:10:31;7.50;99.90
8563;DHT22;16392;52.508;13.468;2023-12-20T01:12:58;7.50;99.90
8563;DHT22;16392;52.508;13.468;2023-12-20T01:15:24;7.50;99.90
8563;DHT22;16392;52.508;13.468;2023-12-20T01:17:51;7.50;99.90
8563;DHT22;16392;52.508;13.468;2023-12-20T01:20:18;7.40;99.90
8563;DHT22;16392;52.508;13.468;2023-12-20T01:22:46;7.50;99.90
8563;DHT22;16392;52.508;13.468;2023-12-20T01:25:13;7.50;99.90
8563;DHT22;16392;52.508;13.468;2023-12-20T01:27:41;7.50;99.90
8563;DHT22;16392;52.508;13.468;2023-12-20T01:30:08;7.40;99.90
8563;DHT22;16392;52.508;13.468;2023-12-20T01:32:36;7.50;99.90
8563;DHT22;16392;52.508;13.468;2023-12-20T01:35:03;7.50;99.90
8563;DHT22;16392;52.508;13.468;2023-12-20T01:37:29;7.50;99.90
8563;DHT22;16392;52.508;13.468;2023-12-20T01:39:57;7.40;99.90
8563;DHT22;16392;52.508;13.468;2023-12-20T01:42:25;7.40;99.90
8563;DHT22;16392;52.508;13.468;2023-12-20T01:44:51;7.40;99.90
8563;DHT22;16392;52.508;13.468;2023-12-20T01:47:18;7.50;99.90
8563;DHT22;16392;52.508;13.468;2023-12-20T01:49:45;7.40;99.90
8563;DHT22;16392;52.508;13.468;2023-12-20T01:52:12;7.40;99.90
8563;DHT22;16392;52.508;13.468;2023-12-20T01:54:40;7.50;99.90
8563;DHT22;16392;52.508;13.468;2023-12-20T01:57:09;7.50;99.90
8563;DHT22;16392;52.508;13.468;2023-12-20T01:59:37;7.50;99.90
8563;DHT22;16392;52.508;13.468;2023-12-20T02:02:03;7.50;99.90
8563;DHT22;16392;52.508;13.468;2023-12-20T02:04:30;7.50;99.90
8563;DHT22;16392;52.508;13.468;2023-12-20T02:06:57;7.50;99.90
8563;DHT22;16392;52.508;13.468;2023-12-20T02:09:25;7.50;99.90
8563;DHT22;16392;52.508;13.468;2023-12-20T02:11:52;7.50;99.90
8563;DHT22;16392;52.508;13.468;2023-12-20T02:14:19;7.50;99.90
8563;DHT22;16392;52.508;13.468;2023-12-20T02:16:46;7.50;99.90
8563;DHT22;16392;52.508;13.468;2023-12-20T02:19:14;7.50;99.90
8563;DHT22;16392;52.508;13.468;2023-12-20T02:21:42;7.50;99.90
8563;DHT22;16392;52.508;13.468;2023-12-20T02:24:08;7.40;99.90
8563;DHT22;16392;52.508;13.468;2023-12-20T02:26:35;7.30;99.90
8563;DHT22;16392;52.508;13.468;2023-12-20T02:29:02;7.20;99.90
8563;DHT22;16392;52.508;13.468;2023-12-20T02:31:29;7.20;99.90
8563;DHT22;16392;52.508;13.468;2023-12-20T02:33:55;7.20;99.90
8563;DHT22;16392;52.508;13.468;2023-12-20T02:36:22;7.20;99.90
8563;DHT22;16392;52.508;13.468;2023-12-20T02:38:50;7.20;99.90
8563;DHT22;16392;52.508;13.468;2023-12-20T02:41:16;7.20;99.90
8563;DHT22;16392;52.508;13.468;2023-12-20T02:43:43;7.30;99.90
8563;DHT22;16392;52.508;13.468;2023-12-20T02:46:10;7.30;99.90
8563;DHT22;16392;52.508;13.468;2023-12-20T02:48:37;7.30;99.90
8563;DHT22;16392;52.508;13.468;2023-12-20T02:51:03;7.30;99.90
8563;DHT22;16392;52.508;13.468;2023-12-20T02:53:30;7.30;99.90
8563;DHT22;16392;52.508;13.468;2023-12-20T02:55:58;7.40;99.90
8563;DHT22;16392;52.508;13.468;2023-12-20T02:58:25;7.40;99.90
8563;DHT22;16392;52.508;13.468;2023-12-20T03:00:51;7.40;99.90
8563;DHT22;16392;52.508;13.468;2023-12-20T03:03:18;7.40;99.90
8563;DHT22;16392;52.508;13.468;2023-12-20T03:05:45;7.40;99.90
8563;DHT22;16392;52.508;13.468;2023-12-20T03:08:12;7.40;99.90
8563;DHT22;16392;52.508;13.468;2023-12-20T03:10:38;7.40;99.90
8563;DHT22;16392;52.508;13.468;2023-12-20T03:13:06;7.40;99.90
8563;DHT22;16392;52.508;13.468;2023-12-20T03:15:33;7.40;99.90
8563;DHT22;16392;52.508;13.468;2023-12-20T03:18:00;7.40;99.90
8563;DHT22;16392;52.508;13.468;2023-12-20T03:20:26;7.40;99.90
8563;DHT22;16392;52.508;13.468;2023-12-20T03:22:53;7.40;99.90
8563;DHT22;16392;52.508;13.468;2023-12-20T03:25:19;7.40;99.90
8563;DHT22;16392;52.508;13.468;2023-12-20T03:27:46;7.30;99.90
8563;DHT22;16392;52.508;13.468;2023-12-20T03:30:14;7.30;99.90
8563;DHT22;16392;52.508;13.468;2023-12-20T03:32:41;7.30;99.90
8563;DHT22;16392;52.508;13.468;2023-12-20T03:35:07;7.30;99.90
8563;DHT22;16392;52.508;13.468;2023-12-20T03:37:34;7.30;99.90
8563;DHT22;16392;52.508;13.468;2023-12-20T03:40:00;7.30;99.90
8563;DHT22;16392;52.508;13.468;2023-12-20T03:42:27;7.20;99.90
8563;DHT22;16392;52.508;13.468;2023-12-20T03:44:54;7.30;99.90
8563;DHT22;16392;52.508;13.468;2023-12-20T03:47:22;7.20;99.90
8563;DHT22;16392;52.508;13.468;2023-12-20T03:49:49;7.20;99.90
8563;DHT22;16392;52.508;13.468;2023-12-20T03:52:16;7.20;99.90
8563;DHT22;16392;52.508;13.468;2023-12-20T03:54:42;7.20;99.90
8563;DHT22;16392;52.508;13.468;2023-12-20T03:57:09;7.20;99.90
8563;DHT22;16392;52.508;13.468;2023-12-20T03:59:36;7.20;99.90
8563;DHT22;16392;52.508;13.468;2023-12-20T04:02:03;7.10;99.90
8563;DHT22;16392;52.508;13.468;2023-12-20T04:04:31;7.10;99.90
8563;DHT22;16392;52.508;13.468;2023-12-20T04:06:58;7.10;99.90
8563;DHT22;16392;52.508;13.468;2023-12-20T04:09:25;7.10;99.90
8563;DHT22;16392;52.508;13.468;2023-12-20T04:11:51;7.10;99.90
8563;DHT22;16392;52.508;13.468;2023-12-20T04:14:18;7.10;99.90
8563;DHT22;16392;52.508;13.468;2023-12-20T04:16:45;7.10;99.90
8563;DHT22;16392;52.508;13.468;2023-12-20T04:19:11;7.10;99.90
8563;DHT22;16392;52.508;13.468;2023-12-20T04:21:40;7.00;99.90
8563;DHT22;16392;52.508;13.468;2023-12-20T04:24:07;7.00;99.90
8563;DHT22;16392;52.508;13.468;2023-12-20T04:26:33;7.00;99.90
8563;DHT22;16392;52.508;13.468;2023-12-20T04:29:01;7.00;99.90
8563;DHT22;16392;52.508;13.468;2023-12-20T04:31:28;7.00;99.90
8563;DHT22;16392;52.508;13.468;2023-12-20T04:33:56;6.90;99.90
8563;DHT22;16392;52.508;13.468;2023-12-20T04:36:22;6.80;99.90
8563;DHT22;16392;52.508;13.468;2023-12-20T04:38:51;6.80;99.90
8563;DHT22;16392;52.508;13.468;2023-12-20T04:41:18;6.80;99.90
8563;DHT22;16392;52.508;13.468;2023-12-20T04:43:44;6.70;99.90
8563;DHT22;16392;52.508;13.468;2023-12-20T04:46:11;6.60;99.90
8563;DHT22;16392;52.508;13.468;2023-12-20T04:48:38;6.60;99.90
8563;DHT22;16392;52.508;13.468;2023-12-20T04:51:04;6.60;99.90
8563;DHT22;16392;52.508;13.468;2023-12-20T04:53:32;6.50;99.90
8563;DHT22;16392;52.508;13.468;2023-12-20T04:56:00;6.50;99.90
8563;DHT22;16392;52.508;13.468;2023-12-20T04:58:26;6.40;99.90
8563;DHT22;16392;52.508;13.468;2023-12-20T05:00:53;6.40;99.90
8563;DHT22;16392;52.508;13.468;2023-12-20T05:03:20;6.40;99.90
8563;DHT22;16392;52.508;13.468;2023-12-20T05:05:46;6.40;99.90
8563;DHT22;16392;52.508;13.468;2023-12-20T05:08:14;6.40;99.90
8563;DHT22;16392;52.508;13.468;2023-12-20T05:10:41;6.40;99.90
8563;DHT22;16392;52.508;13.468;2023-12-20T05:13:09;6.50;99.90
8563;DHT22;16392;52.508;13.468;2023-12-20T05:15:36;6.50;99.90
8563;DHT22;16392;52.508;13.468;2023-12-20T05:18:03;6.60;99.90
8563;DHT22;16392;52.508;13.468;2023-12-20T05:20:30;6.60;99.90
8563;DHT22;16392;52.508;13.468;2023-12-20T05:22:56;6.70;99.90
8563;DHT22;16392;52.508;13.468;2023-12-20T05:25:23;6.70;99.90
8563;DHT22;16392;52.508;13.468;2023-12-20T05:27:50;6.70;99.90
8563;DHT22;16392;52.508;13.468;2023-12-20T05:30:19;6.70;99.90
8563;DHT22;16392;52.508;13.468;2023-12-20T05:32:45;6.70;99.90
8563;DHT22;16392;52.508;13.468;2023-12-20T05:35:12;6.50;99.90
8563;DHT22;16392;52.508;13.468;2023-12-20T05:37:38;6.50;99.90
8563;DHT22;16392;52.508;13.468;2023-12-20T05:40:06;6.40;99.90
8563;DHT22;16392;52.508;13.468;2023-12-20T05:42:35;6.30;99.90
8563;DHT22;16392;52.508;13.468;2023-12-20T05:45:02;6.30;99.90
8563;DHT22;16392;52.508;13.468;2023-12-20T05:47:30;6.20;99.90
8563;DHT22;16392;52.508;13.468;2023-12-20T05:49:56;6.20;99.90
8563;DHT22;16392;52.508;13.468;2023-12-20T05:52:23;6.10;99.90
8563;DHT22;16392;52.508;13.468;2023-12-20T05:54:50;6.00;99.90
8563;DHT22;16392;52.508;13.468;2023-12-20T05:57:16;6.00;99.90
8563;DHT22;16392;52.508;13.468;2023-12-20T05:59:43;5.90;99.90
8563;DHT22;16392;52.508;13.468;2023-12-20T06:02:10;5.90;99.90
8563;DHT22;16392;52.508;13.468;2023-12-20T06:04:42;5.90;99.90
8563;DHT22;16392;52.508;13.468;2023-12-20T06:07:08;5.90;99.90
8563;DHT22;16392;52.508;13.468;2023-12-20T06:09:37;5.80;99.90
8563;DHT22;16392;52.508;13.468;2023-12-20T06:12:05;5.90;99.90
8563;DHT22;16392;52.508;13.468;2023-12-20T06:14:31;5.90;99.90
8563;DHT22;16392;52.508;13.468;2023-12-20T06:16:58;5.80;99.90
8563;DHT22;16392;52.508;13.468;2023-12-20T06:19:24;5.80;99.90
8563;DHT22;16392;52.508;13.468;2023-12-20T06:21:52;5.80;99.90
8563;DHT22;16392;52.508;13.468;2023-12-20T06:24:19;5.80;99.90
8563;DHT22;16392;52.508;13.468;2023-12-20T06:26:47;5.70;99.90
8563;DHT22;16392;52.508;13.468;2023-12-20T06:29:13;5.70;99.90
8563;DHT22;16392;52.508;13.468;2023-12-20T06:31:40;5.80;99.90
8563;DHT22;16392;52.508;13.468;2023-12-20T06:34:06;5.80;99.90
8563;DHT22;16392;52.508;13.468;2023-12-20T06:36:33;5.80;99.90
8563;DHT22;16392;52.508;13.468;2023-12-20T06:39:01;5.70;99.90
8563;DHT22;16392;52.508;13.468;2023-12-20T06:41:30;5.70;99.90
8563;DHT22;16392;52.508;13.468;2023-12-20T06:43:56;5.80;99.90
8563;DHT22;16392;52.508;13.468;2023-12-20T06:46:24;5.80;99.90
8563;DHT22;16392;52.508;13.468;2023-12-20T06:48:51;5.80;99.90
8563;DHT22;16392;52.508;13.468;2023-12-20T06:51:17;5.90;99.90
8563;DHT22;16392;52.508;13.468;2023-12-20T06:53:45;5.90;99.90
8563;DHT22;16392;52.508;13.468;2023-12-20T06:56:13;5.90;99.90
8563;DHT22;16392;52.508;13.468;2023-12-20T06:58:40;5.90;99.90
8563;DHT22;16392;52.508;13.468;2023-12-20T07:01:11;5.90;99.90
8563;DHT22;16392;52.508;13.468;2023-12-20T07:03:37;5.90;99.90
8563;DHT22;16392;52.508;13.468;2023-12-20T07:06:04;6.00;99.90
8563;DHT22;16392;52.508;13.468;2023-12-20T07:08:31;6.00;99.90
8563;DHT22;16392;52.508;13.468;2023-12-20T07:10:58;6.00;99.90
8563;DHT22;16392;52.508;13.468;2023-12-20T07:13:25;6.00;99.90
8563;DHT22;16392;52.508;13.468;2023-12-20T07:15:52;6.00;99.90
8563;DHT22;16392;52.508;13.468;2023-12-20T07:18:19;6.10;99.90
8563;DHT22;16392;52.508;13.468;2023-12-20T07:20:45;6.10;99.90
8563;DHT22;16392;52.508;13.468;2023-12-20T07:23:12;6.10;99.90
8563;DHT22;16392;52.508;13.468;2023-12-20T07:25:39;6.10;99.90
8563;DHT22;16392;52.508;13.468;2023-12-20T07:28:07;6.10;99.90
8563;DHT22;16392;52.508;13.468;2023-12-20T07:30:35;6.20;99.90
8563;DHT22;16392;52.508;13.468;2023-12-20T07:33:01;6.20;99.90
8563;DHT22;16392;52.508;13.468;2023-12-20T07:35:28;6.20;99.90
8563;DHT22;16392;52.508;13.468;2023-12-20T07:37:55;6.20;99.90
8563;DHT22;16392;52.508;13.468;2023-12-20T07:40:22;6.20;99.90
8563;DHT22;16392;52.508;13.468;2023-12-20T07:42:49;6.30;99.90
8563;DHT22;16392;52.508;13.468;2023-12-20T07:45:17;6.30;99.90
8563;DHT22;16392;52.508;13.468;2023-12-20T07:47:45;6.30;99.90
8563;DHT22;16392;52.508;13.468;2023-12-20T07:50:11;6.30;99.90
8563;DHT22;16392;52.508;13.468;2023-12-20T07:52:38;6.30;99.90
8563;DHT22;16392;52.508;13.468;2023-12-20T07:55:05;6.30;99.90
8563;DHT22;16392;52.508;13.468;2023-12-20T07:57:32;6.30;99.90
8563;DHT22;16392;52.508;13.468;2023-12-20T07:59:59;6.30;99.90
8563;DHT22;16392;52.508;13.468;2023-12-20T08:02:25;6.30;99.90
8563;DHT22;16392;52.508;13.468;2023-12-20T08:04:53;6.30;99.90
8563;DHT22;16392;52.508;13.468;2023-12-20T08:07:20;6.40;99.90
8563;DHT22;16392;52.508;13.468;2023-12-20T08:09:47;6.40;99.90
8563;DHT22;16392;52.508;13.468;2023-12-20T08:12:13;6.40;99.90
8563;DHT22;16392;52.508;13.468;2023-12-20T08:14:42;6.40;99.90
8563;DHT22;16392;52.508;13.468;2023-12-20T08:17:08;6.40;99.90
8563;DHT22;16392;52.508;13.468;2023-12-20T08:19:35;6.50;99.90
8563;DHT22;16392;52.508;13.468;2023-12-20T08:22:03;6.50;99.90
8563;DHT22;16392;52.508;13.468;2023-12-20T08:24:30;6.50;99.90
8563;DHT22;16392;52.508;13.468;2023-12-20T08:26:56;6.50;99.90
8563;DHT22;16392;52.508;13.468;2023-12-20T08:29:23;6.50;99.90
8563;DHT22;16392;52.508;13.468;2023-12-20T08:31:52;6.50;99.90
8563;DHT22;16392;52.508;13.468;2023-12-20T08:34:19;6.50;99.90
8563;DHT22;16392;52.508;13.468;2023-12-20T08:36:45;6.50;99.90
8563;DHT22;16392;52.508;13.468;2023-12-20T08:39:13;6.50;99.90
8563;DHT22;16392;52.508;13.468;2023-12-20T08:41:40;6.50;99.90
8563;DHT22;16392;52.508;13.468;2023-12-20T08:44:06;6.50;99.90
8563;DHT22;16392;52.508;13.468;2023-12-20T08:46:33;6.60;99.90
8563;DHT22;16392;52.508;13.468;2023-12-20T08:48:59;6.60;99.90
8563;DHT22;16392;52.508;13.468;2023-12-20T08:51:26;6.70;99.90
8563;DHT22;16392;52.508;13.468;2023-12-20T08:53:53;6.70;99.90
8563;DHT22;16392;52.508;13.468;2023-12-20T08:56:21;6.80;99.90
8563;DHT22;16392;52.508;13.468;2023-12-20T08:58:47;6.90;99.90
8563;DHT22;16392;52.508;13.468;2023-12-20T09:01:14;7.00;99.90
8563;DHT22;16392;52.508;13.468;2023-12-20T09:03:41;7.00;99.90
8563;DHT22;16392;52.508;13.468;2023-12-20T09:06:08;7.00;99.90
8563;DHT22;16392;52.508;13.468;2023-12-20T09:08:35;6.90;99.90
8563;DHT22;16392;52.508;13.468;2023-12-20T09:11:01;7.00;99.90
8563;DHT22;16392;52.508;13.468;2023-12-20T09:13:29;7.00;99.90
8563;DHT22;16392;52.508;13.468;2023-12-20T09:15:57;7.10;99.90
8563;DHT22;16392;52.508;13.468;2023-12-20T09:18:24;7.30;99.90
8563;DHT22;16392;52.508;13.468;2023-12-20T09:20:51;7.40;99.90
8563;DHT22;16392;52.508;13.468;2023-12-20T09:23:17;7.40;99.90
8563;DHT22;16392;52.508;13.468;2023-12-20T09:25:44;7.40;99.90
8563;DHT22;16392;52.508;13.468;2023-12-20T09:28:11;7.30;99.90
8563;DHT22;16392;52.508;13.468;2023-12-20T09:30:39;7.30;99.90
8563;DHT22;16392;52.508;13.468;2023-12-20T09:33:05;7.20;99.90
8563;DHT22;16392;52.508;13.468;2023-12-20T09:35:32;7.30;99.90
8563;DHT22;16392;52.508;13.468;2023-12-20T09:37:59;7.30;99.90
8563;DHT22;16392;52.508;13.468;2023-12-20T09:40:26;7.20;99.90
8563;DHT22;16392;52.508;13.468;2023-12-20T09:42:56;7.10;99.90
8563;DHT22;16392;52.508;13.468;2023-12-20T09:45:24;7.20;99.90
8563;DHT22;16392;52.508;13.468;2023-12-20T09:47:53;7.10;99.90
8563;DHT22;16392;52.508;13.468;2023-12-20T09:50:20;7.10;99.90
8563;DHT22;16392;52.508;13.468;2023-12-20T09:52:50;7.10;99.90
8563;DHT22;16392;52.508;13.468;2023-12-20T09:55:17;7.10;99.90
8563;DHT22;16392;52.508;13.468;2023-12-20T09:57:44;7.10;99.90
8563;DHT22;16392;52.508;13.468;2023-12-20T10:00:12;7.10;99.90
8563;DHT22;16392;52.508;13.468;2023-12-20T10:02:45;7.10;99.90
8563;DHT22;16392;52.508;13.468;2023-12-20T10:05:16;7.10;99.90
8563;DHT22;16392;52.508;13.468;2023-12-20T10:07:44;7.10;99.90
8563;DHT22;16392;52.508;13.468;2023-12-20T10:10:12;7.20;99.90
8563;DHT22;16392;52.508;13.468;2023-12-20T10:12:39;7.20;99.90
8563;DHT22;16392;52.508;13.468;2023-12-20T10:15:06;7.30;99.90
8563;DHT22;16392;52.508;13.468;2023-12-20T10:17:33;7.30;99.90
8563;DHT22;16392;52.508;13.468;2023-12-20T10:19:59;7.30;99.90
8563;DHT22;16392;52.508;13.468;2023-12-20T10:22:28;7.30;99.90
8563;DHT22;16392;52.508;13.468;2023-12-20T10:24:56;7.30;99.90
8563;DHT22;16392;52.508;13.468;2023-12-20T10:27:23;7.30;99.90
8563;DHT22;16392;52.508;13.468;2023-12-20T10:29:50;7.30;99.90
8563;DHT22;16392;52.508;13.468;2023-12-20T10:32:25;7.30;99.90
8563;DHT22;16392;52.508;13.468;2023-12-20T10:34:52;7.30;99.90
8563;DHT22;16392;52.508;13.468;2023-12-20T10:37:18;7.30;99.90
8563;DHT22;16392;52.508;13.468;2023-12-20T10:39:49;7.40;99.90
8563;DHT22;16392;52.508;13.468;2023-12-20T10:42:18;7.40;99.90
8563;DHT22;16392;52.508;13.468;2023-12-20T10:44:47;7.40;99.90
8563;DHT22;16392;52.508;13.468;2023-12-20T10:47:14;7.40;99.90
8563;DHT22;16392;52.508;13.468;2023-12-20T10:49:41;7.40;99.90
8563;DHT22;16392;52.508;13.468;2023-12-20T10:52:09;7.40;99.90
8563;DHT22;16392;52.508;13.468;2023-12-20T10:54:38;7.50;99.90
8563;DHT22;16392;52.508;13.468;2023-12-20T10:57:06;7.50;99.90
8563;DHT22;16392;52.508;13.468;2023-12-20T10:59:34;7.50;99.90
8563;DHT22;16392;52.508;13.468;2023-12-20T11:02:03;7.50;99.90
8563;DHT22;16392;52.508;13.468;2023-12-20T11:04:37;7.50;99.90
8563;DHT22;16392;52.508;13.468;2023-12-20T11:07:15;7.50;99.90
8563;DHT22;16392;52.508;13.468;2023-12-20T11:09:46;7.50;99.90
8563;DHT22;16392;52.508;13.468;2023-12-20T11:12:20;7.50;99.90
8563;DHT22;16392;52.508;13.468;2023-12-20T11:14:54;7.50;99.90
8563;DHT22;16392;52.508;13.468;2023-12-20T11:17:22;7.60;99.90
8563;DHT22;16392;52.508;13.468;2023-12-20T11:20:13;7.60;99.90
8563;DHT22;16392;52.508;13.468;2023-12-20T11:22:52;7.50;99.90
8563;DHT22;16392;52.508;13.468;2023-12-20T11:25:19;7.50;99.90
8563;DHT22;16392;52.508;13.468;2023-12-20T11:28:07;7.40;99.90
8563;DHT22;16392;52.508;13.468;2023-12-20T11:30:41;7.40;99.90
8563;DHT22;16392;52.508;13.468;2023-12-20T11:33:08;7.30;99.90
8563;DHT22;16392;52.508;13.468;2023-12-20T11:35:35;7.30;99.90
8563;DHT22;16392;52.508;13.468;2023-12-20T11:38:02;7.30;99.90
8563;DHT22;16392;52.508;13.468;2023-12-20T11:40:33;7.20;99.90
8563;DHT22;16392;52.508;13.468;2023-12-20T11:43:03;7.20;99.90
8563;DHT22;16392;52.508;13.468;2023-12-20T11:45:30;7.10;99.90
8563;DHT22;16392;52.508;13.468;2023-12-20T11:47:57;7.20;99.90
8563;DHT22;16392;52.508;13.468;2023-12-20T11:50:24;7.20;99.90
8563;DHT22;16392;52.508;13.468;2023-12-20T11:52:52;7.20;99.90
8563;DHT22;16392;52.508;13.468;2023-12-20T11:55:19;7.20;99.90
8563;DHT22;16392;52.508;13.468;2023-12-20T11:57:46;7.20;99.90
8563;DHT22;16392;52.508;13.468;2023-12-20T12:00:15;7.20;99.90
8563;DHT22;16392;52.508;13.468;2023-12-20T12:02:42;7.20;99.90
8563;DHT22;16392;52.508;13.468;2023-12-20T12:05:09;7.20;99.90
8563;DHT22;16392;52.508;13.468;2023-12-20T12:07:36;7.20;99.90
8563;DHT22;16392;52.508;13.468;2023-12-20T12:10:03;7.20;99.90
8563;DHT22;16392;52.508;13.468;2023-12-20T12:12:30;7.30;99.90
8563;DHT22;16392;52.508;13.468;2023-12-20T12:14:59;7.30;99.90
8563;DHT22;16392;52.508;13.468;2023-12-20T12:17:27;7.40;99.90
8563;DHT22;16392;52.508;13.468;2023-12-20T12:20:02;7.30;99.90
8563;DHT22;16392;52.508;13.468;2023-12-20T12:22:30;7.30;99.90
8563;DHT22;16392;52.508;13.468;2023-12-20T12:24:59;7.40;99.90
8563;DHT22;16392;52.508;13.468;2023-12-20T12:27:27;7.40;99.90
8563;DHT22;16392;52.508;13.468;2023-12-20T12:30:01;7.40;99.90
8563;DHT22;16392;52.508;13.468;2023-12-20T12:32:30;7.40;99.90
8563;DHT22;16392;52.508;13.468;2023-12-20T12:34:57;7.40;99.90
8563;DHT22;16392;52.508;13.468;2023-12-20T12:37:24;7.30;99.90
8563;DHT22;16392;52.508;13.468;2023-12-20T12:39:53;7.20;99.90
8563;DHT22;16392;52.508;13.468;2023-12-20T12:42:20;7.10;99.90
8563;DHT22;16392;52.508;13.468;2023-12-20T12:44:47;7.00;99.90
8563;DHT22;16392;52.508;13.468;2023-12-20T12:47:13;6.90;99.90
8563;DHT22;16392;52.508;13.468;2023-12-20T12:49:41;6.90;99.90
8563;DHT22;16392;52.508;13.468;2023-12-20T12:52:08;6.90;99.90
8563;DHT22;16392;52.508;13.468;2023-12-20T12:54:35;6.80;99.90
8563;DHT22;16392;52.508;13.468;2023-12-20T12:57:02;6.80;99.90
8563;DHT22;16392;52.508;13.468;2023-12-20T12:59:29;6.80;99.90
8563;DHT22;16392;52.508;13.468;2023-12-20T13:01:55;6.80;99.90
8563;DHT22;16392;52.508;13.468;2023-12-20T13:04:22;6.80;99.90
8563;DHT22;16392;52.508;13.468;2023-12-20T13:06:50;6.80;99.90
8563;DHT22;16392;52.508;13.468;2023-12-20T13:09:16;6.80;99.90
8563;DHT22;16392;52.508;13.468;2023-12-20T13:11:44;6.80;99.90
8563;DHT22;16392;52.508;13.468;2023-12-20T13:14:11;6.70;99.90
8563;DHT22;16392;52.508;13.468;2023-12-20T13:16:41;6.70;99.90
8563;DHT22;16392;52.508;13.468;2023-12-20T13:19:07;6.70;99.90
8563;DHT22;16392;52.508;13.468;2023-12-20T13:21:35;6.70;99.90
8563;DHT22;16392;52.508;13.468;2023-12-20T13:24:04;6.70;99.90
8563;DHT22;16392;52.508;13.468;2023-12-20T13:26:31;6.70;99.90
8563;DHT22;16392;52.508;13.468;2023-12-20T13:28:58;6.70;99.90
8563;DHT22;16392;52.508;13.468;2023-12-20T13:31:25;6.40;99.90
8563;DHT22;16392;52.508;13.468;2023-12-20T13:33:51;6.20;99.90
8563;DHT22;16392;52.508;13.468;2023-12-20T13:36:18;6.20;99.90
8563;DHT22;16392;52.508;13.468;2023-12-20T13:38:45;6.10;99.90
8563;DHT22;16392;52.508;13.468;2023-12-20T13:41:13;6.10;99.90
8563;DHT22;16392;52.508;13.468;2023-12-20T13:43:39;6.10;99.90
8563;DHT22;16392;52.508;13.468;2023-12-20T13:46:06;6.00;99.90
8563;DHT22;16392;52.508;13.468;2023-12-20T13:48:33;6.00;99.90
8563;DHT22;16392;52.508;13.468;2023-12-20T13:50:59;6.00;99.90
8563;DHT22;16392;52.508;13.468;2023-12-20T13:53:28;6.00;99.90
8563;DHT22;16392;52.508;13.468;2023-12-20T13:55:54;6.00;99.90
8563;DHT22;16392;52.508;13.468;2023-12-20T13:58:22;5.90;99.90
8563;DHT22;16392;52.508;13.468;2023-12-20T14:00:49;5.90;99.90
8563;DHT22;16392;52.508;13.468;2023-12-20T14:03:16;5.80;99.90
8563;DHT22;16392;52.508;13.468;2023-12-20T14:05:42;5.70;99.90
8563;DHT22;16392;52.508;13.468;2023-12-20T14:08:09;5.70;99.90
8563;DHT22;16392;52.508;13.468;2023-12-20T14:10:36;5.70;99.90
8563;DHT22;16392;52.508;13.468;2023-12-20T14:13:04;5.70;99.90
8563;DHT22;16392;52.508;13.468;2023-12-20T14:15:32;5.70;99.90
8563;DHT22;16392;52.508;13.468;2023-12-20T14:18:03;5.70;99.90
8563;DHT22;16392;52.508;13.468;2023-12-20T14:20:30;5.70;99.90
8563;DHT22;16392;52.508;13.468;2023-12-20T14:22:57;5.70;99.90
8563;DHT22;16392;52.508;13.468;2023-12-20T14:25:24;5.70;99.90
8563;DHT22;16392;52.508;13.468;2023-12-20T14:27:51;5.80;99.90
8563;DHT22;16392;52.508;13.468;2023-12-20T14:30:17;5.80;99.90
8563;DHT22;16392;52.508;13.468;2023-12-20T14:32:45;5.80;99.90
8563;DHT22;16392;52.508;13.468;2023-12-20T14:35:13;5.90;99.90
8563;DHT22;16392;52.508;13.468;2023-12-20T14:37:40;5.90;99.90
8563;DHT22;16392;52.508;13.468;2023-12-20T14:40:07;5.90;99.90
8563;DHT22;16392;52.508;13.468;2023-12-20T14:42:36;5.90;99.90
8563;DHT22;16392;52.508;13.468;2023-12-20T14:45:03;5.90;99.90
8563;DHT22;16392;52.508;13.468;2023-12-20T14:47:30;5.90;99.90
8563;DHT22;16392;52.508;13.468;2023-12-20T14:49:58;6.00;99.90
8563;DHT22;16392;52.508;13.468;2023-12-20T14:52:25;6.00;99.90
8563;DHT22;16392;52.508;13.468;2023-12-20T14:54:51;6.00;99.90
8563;DHT22;16392;52.508;13.468;2023-12-20T14:57:18;6.00;99.90
8563;DHT22;16392;52.508;13.468;2023-12-20T14:59:44;6.00;99.90
8563;DHT22;16392;52.508;13.468;2023-12-20T15:02:11;6.10;99.90
8563;DHT22;16392;52.508;13.468;2023-12-20T15:04:37;6.00;99.90
8563;DHT22;16392;52.508;13.468;2023-12-20T15:07:05;6.00;99.90
8563;DHT22;16392;52.508;13.468;2023-12-20T15:09:32;6.00;99.90
8563;DHT22;16392;52.508;13.468;2023-12-20T15:11:58;6.10;99.90
8563;DHT22;16392;52.508;13.468;2023-12-20T15:14:25;6.10;99.90
8563;DHT22;16392;52.508;13.468;2023-12-20T15:16:54;6.10;99.90
8563;DHT22;16392;52.508;13.468;2023-12-20T15:19:21;6.10;99.90
8563;DHT22;16392;52.508;13.468;2023-12-20T15:21:48;6.10;99.90
8563;DHT22;16392;52.508;13.468;2023-12-20T15:24:17;6.10;99.90
8563;DHT22;16392;52.508;13.468;2023-12-20T15:26:46;6.10;99.90
8563;DHT22;16392;52.508;13.468;2023-12-20T15:29:13;6.10;99.90
8563;DHT22;16392;52.508;13.468;2023-12-20T15:31:42;6.10;99.90
8563;DHT22;16392;52.508;13.468;2023-12-20T15:34:09;6.10;99.90
8563;DHT22;16392;52.508;13.468;2023-12-20T15:36:36;6.10;99.90
8563;DHT22;16392;52.508;13.468;2023-12-20T15:39:03;6.00;99.90
8563;DHT22;16392;52.508;13.468;2023-12-20T15:41:30;5.90;99.90
8563;DHT22;16392;52.508;13.468;2023-12-20T15:43:57;5.90;99.90
8563;DHT22;16392;52.508;13.468;2023-12-20T15:46:24;5.70;99.90